Time;durP1;ratioP1;P1;durP2;ratioP2;P2;SDS_P1;SDS_P2;PMS_P1;PMS_P2;Temp;Humidity;BMP_temperature;BMP_pressure;BME280_temperature;BME280_humidity;BME280_pressure;Samples;Min_cycle;Max_cycle;Signal;HPM_P1;HPM_P2
2021/07/31 00:00:10;;;;;;;;;;;23.40;59.30;;;;;;5023531;28;19932;-60
2021/07/31 00:02:35;;;;;;;;;;;23.40;59.30;;;;;;5024131;28;20328;-60
2021/07/31 00:05:01;;;;;;;;;;;23.40;59.30;;;;;;5023566;28;20457;-60
2021/07/31 00:07:26;;;;;;;;;;;23.40;59.30;;;;;;5023198;28;19913;-61
2021/07/31 00:09:51;;;;;;;;;;;23.40;59.30;;;;;;5022938;28;19971;-58
2021/07/31 00:12:17;;;;;;;;;;;23.40;59.30;;;;;;5023448;28;20384;-60
2021/07/31 00:14:42;;;;;;;;;;;23.40;59.30;;;;;;5023312;28;19916;-59
2021/07/31 00:17:08;;;;;;;;;;;23.40;59.30;;;;;;5023248;28;19917;-59
2021/07/31 00:19:34;;;;;;;;;;;23.40;59.30;;;;;;5023163;28;19920;-59
2021/07/31 00:22:01;;;;;;;;;;;23.40;59.40;;;;;;5023134;28;19920;-60
2021/07/31 00:24:27;;;;;;;;;;;23.40;59.30;;;;;;5022997;28;19948;-60
2021/07/31 00:26:52;;;;;;;;;;;23.40;59.30;;;;;;5023085;28;20026;-61
2021/07/31 00:29:18;;;;;;;;;;;23.40;59.30;;;;;;5022315;28;19963;-60
2021/07/31 00:31:43;;;;;;;;;;;23.40;59.30;;;;;;5022263;28;19929;-59
2021/07/31 00:34:09;;;;;;;;;;;23.40;59.30;;;;;;5022798;28;19914;-60
2021/07/31 00:36:34;;;;;;;;;;;23.40;59.30;;;;;;5022334;28;19925;-60
2021/07/31 00:39:00;;;;;;;;;;;23.40;59.20;;;;;;5022393;28;19925;-61
2021/07/31 00:41:25;;;;;;;;;;;23.40;59.30;;;;;;5022815;28;19928;-59
2021/07/31 00:43:50;;;;;;;;;;;23.40;59.30;;;;;;5022776;28;19917;-60
2021/07/31 00:46:16;;;;;;;;;;;23.40;59.30;;;;;;5022701;28;19917;-60
2021/07/31 00:48:41;;;;;;;;;;;23.40;59.30;;;;;;5022786;28;20046;-61
2021/07/31 00:51:07;;;;;;;;;;;23.40;59.20;;;;;;5022785;28;19924;-61
2021/07/31 00:53:33;;;;;;;;;;;23.40;59.30;;;;;;5021520;28;19924;-61
2021/07/31 00:55:58;;;;;;;;;;;23.40;59.30;;;;;;5022640;28;20313;-59
2021/07/31 00:58:24;;;;;;;;;;;23.40;59.30;;;;;;5020783;28;19917;-61
2021/07/31 01:00:50;;;;;;;;;;;23.40;59.30;;;;;;5021277;28;19925;-60
2021/07/31 01:03:16;;;;;;;;;;;23.50;59.30;;;;;;5021163;28;20003;-60
2021/07/31 01:05:41;;;;;;;;;;;23.40;59.20;;;;;;5021844;28;19925;-60
2021/07/31 01:08:06;;;;;;;;;;;23.40;59.20;;;;;;5021851;28;19992;-61
2021/07/31 01:10:32;;;;;;;;;;;23.40;59.20;;;;;;5022810;28;20286;-61
2021/07/31 01:12:58;;;;;;;;;;;23.40;59.10;;;;;;5021749;28;20007;-60
2021/07/31 01:15:23;;;;;;;;;;;23.40;59.00;;;;;;5020827;28;19920;-60
2021/07/31 01:17:48;;;;;;;;;;;23.40;58.80;;;;;;5022036;28;19924;-61
2021/07/31 01:20:14;;;;;;;;;;;23.40;59.00;;;;;;5022012;28;20569;-61
2021/07/31 01:22:39;;;;;;;;;;;23.40;58.90;;;;;;5021978;28;19913;-59
2021/07/31 01:25:05;;;;;;;;;;;23.40;58.90;;;;;;5022606;28;19921;-59
2021/07/31 01:27:31;;;;;;;;;;;23.40;59.00;;;;;;5021017;28;19964;-61
2021/07/31 01:29:56;;;;;;;;;;;23.40;59.00;;;;;;5020512;28;19924;-60
2021/07/31 01:32:21;;;;;;;;;;;23.40;59.00;;;;;;5022489;28;20297;-60
2021/07/31 01:34:47;;;;;;;;;;;23.40;59.00;;;;;;5022082;28;19952;-61
2021/07/31 01:37:12;;;;;;;;;;;23.40;59.00;;;;;;5021742;28;19928;-59
2021/07/31 01:39:38;;;;;;;;;;;23.40;59.00;;;;;;5021759;28;19913;-60
2021/07/31 01:42:04;;;;;;;;;;;23.40;59.00;;;;;;5022870;28;19914;-61
2021/07/31 01:44:30;;;;;;;;;;;23.40;59.00;;;;;;5024065;28;19940;-59
2021/07/31 01:46:55;;;;;;;;;;;23.40;59.00;;;;;;5026123;28;20366;-60
2021/07/31 01:49:21;;;;;;;;;;;23.40;59.00;;;;;;5024292;28;19967;-61
2021/07/31 01:51:46;;;;;;;;;;;23.40;59.00;;;;;;5025920;28;20386;-59
2021/07/31 01:54:12;;;;;;;;;;;23.40;58.90;;;;;;5026043;28;19913;-60
2021/07/31 01:56:37;;;;;;;;;;;23.40;58.90;;;;;;5025861;28;19913;-61
2021/07/31 01:59:03;;;;;;;;;;;23.40;58.90;;;;;;5025934;28;19924;-60
2021/07/31 02:01:28;;;;;;;;;;;23.40;59.00;;;;;;5019154;28;19923;-60
2021/07/31 02:03:54;;;;;;;;;;;23.40;59.00;;;;;;5025888;28;20370;-60
2021/07/31 02:06:19;;;;;;;;;;;23.40;59.00;;;;;;5025438;28;19925;-59
2021/07/31 02:08:44;;;;;;;;;;;23.40;59.10;;;;;;5025541;28;19917;-59
2021/07/31 02:11:11;;;;;;;;;;;23.40;59.00;;;;;;5025886;28;19917;-61
2021/07/31 02:13:37;;;;;;;;;;;23.40;59.00;;;;;;5026398;28;19917;-60
2021/07/31 02:16:02;;;;;;;;;;;23.40;59.10;;;;;;5025732;28;19913;-61
2021/07/31 02:18:28;;;;;;;;;;;23.40;59.10;;;;;;5025154;28;19917;-60
2021/07/31 02:20:53;;;;;;;;;;;23.40;59.10;;;;;;5025392;28;19913;-59
2021/07/31 02:23:18;;;;;;;;;;;23.40;59.10;;;;;;5025605;28;19919;-60
2021/07/31 02:25:44;;;;;;;;;;;23.40;59.00;;;;;;5025388;28;19971;-60
2021/07/31 02:28:09;;;;;;;;;;;23.40;59.00;;;;;;5025375;28;20313;-60
2021/07/31 02:30:35;;;;;;;;;;;23.40;59.00;;;;;;5024097;28;23541;-59
2021/07/31 02:33:00;;;;;;;;;;;23.40;58.90;;;;;;5025408;28;19913;-59
2021/07/31 02:35:33;;;;;;;;;;;23.40;58.90;;;;;;5024809;28;19917;-59
2021/07/31 02:37:58;;;;;;;;;;;23.40;58.90;;;;;;5024593;28;20007;-60
2021/07/31 02:40:24;;;;;;;;;;;23.40;58.90;;;;;;5025099;28;19996;-60
2021/07/31 02:42:49;;;;;;;;;;;23.40;58.90;;;;;;5025121;28;19920;-60
2021/07/31 02:45:15;;;;;;;;;;;23.40;58.80;;;;;;5025193;28;19921;-58
2021/07/31 02:47:40;;;;;;;;;;;23.40;58.80;;;;;;5024916;28;19921;-60
2021/07/31 02:50:06;;;;;;;;;;;23.40;58.80;;;;;;5024646;28;19920;-61
2021/07/31 02:52:31;;;;;;;;;;;23.40;58.80;;;;;;5024691;28;19987;-60
2021/07/31 02:54:56;;;;;;;;;;;23.40;58.80;;;;;;5022834;28;19914;-60
2021/07/31 02:57:22;;;;;;;;;;;23.40;58.80;;;;;;5024796;28;19917;-59
2021/07/31 02:59:47;;;;;;;;;;;23.40;58.80;;;;;;5023861;28;20818;-59
2021/07/31 03:02:13;;;;;;;;;;;23.40;58.90;;;;;;5016483;28;19923;-59
2021/07/31 03:04:38;;;;;;;;;;;23.40;58.90;;;;;;5024251;28;19921;-59
2021/07/31 03:07:04;;;;;;;;;;;23.40;58.90;;;;;;5024579;28;19913;-61
2021/07/31 03:09:29;;;;;;;;;;;23.40;59.00;;;;;;5024045;28;20528;-60
2021/07/31 03:11:54;;;;;;;;;;;23.40;58.90;;;;;;5024560;28;19959;-59
2021/07/31 03:14:20;;;;;;;;;;;23.40;58.70;;;;;;5024276;28;19949;-58
2021/07/31 03:16:45;;;;;;;;;;;23.40;59.40;;;;;;5023917;28;19917;-60
2021/07/31 03:19:11;;;;;;;;;;;23.40;58.80;;;;;;5023889;28;20336;-61
2021/07/31 03:21:36;;;;;;;;;;;23.40;58.70;;;;;;5024443;28;19924;-59
2021/07/31 03:24:02;;;;;;;;;;;23.40;58.70;;;;;;5024564;28;19918;-58
2021/07/31 03:26:27;;;;;;;;;;;23.40;58.70;;;;;;5024505;28;20392;-59
2021/07/31 03:28:53;;;;;;;;;;;23.40;58.80;;;;;;5023816;28;19917;-61
2021/07/31 03:31:18;;;;;;;;;;;23.40;58.80;;;;;;5024269;28;19919;-60
2021/07/31 03:33:44;;;;;;;;;;;23.40;58.80;;;;;;5023815;28;20275;-59
2021/07/31 03:36:09;;;;;;;;;;;23.40;58.70;;;;;;5024667;28;19921;-59
2021/07/31 03:38:35;;;;;;;;;;;23.40;58.70;;;;;;5024325;28;19925;-60
2021/07/31 03:41:00;;;;;;;;;;;23.30;58.80;;;;;;5028923;28;20332;-60
2021/07/31 03:43:25;;;;;;;;;;;23.40;58.80;;;;;;5029164;28;19917;-59
2021/07/31 03:45:51;;;;;;;;;;;23.40;58.80;;;;;;5023797;28;19921;-60
2021/07/31 03:48:16;;;;;;;;;;;23.40;59.20;;;;;;5023995;28;19917;-59
2021/07/31 03:50:42;;;;;;;;;;;23.40;58.50;;;;;;5024403;28;19913;-61
2021/07/31 03:53:07;;;;;;;;;;;23.40;58.50;;;;;;5023755;28;19921;-59
2021/07/31 03:55:33;;;;;;;;;;;23.40;58.40;;;;;;5016484;28;19922;-60
2021/07/31 03:57:58;;;;;;;;;;;23.30;58.30;;;;;;5013107;28;19975;-59
2021/07/31 04:00:24;;;;;;;;;;;23.40;58.30;;;;;;5008555;28;19924;-59
2021/07/31 04:02:49;;;;;;;;;;;23.40;58.50;;;;;;5022583;28;20271;-61
2021/07/31 04:05:15;;;;;;;;;;;23.30;58.30;;;;;;5015173;28;19999;-59
2021/07/31 04:07:40;;;;;;;;;;;23.30;58.30;;;;;;5021316;28;19948;-58
2021/07/31 04:10:06;;;;;;;;;;;23.30;58.30;;;;;;5023294;28;19924;-60
2021/07/31 04:12:31;;;;;;;;;;;23.40;58.30;;;;;;5023389;28;20267;-58
2021/07/31 04:14:57;;;;;;;;;;;23.30;58.20;;;;;;5023497;28;19913;-61
2021/07/31 04:17:22;;;;;;;;;;;23.30;58.50;;;;;;5023184;28;20445;-60
2021/07/31 04:19:48;;;;;;;;;;;23.30;58.30;;;;;;5022750;28;19917;-58
2021/07/31 04:22:13;;;;;;;;;;;23.30;58.30;;;;;;5023697;28;20546;-61
2021/07/31 04:24:39;;;;;;;;;;;23.30;58.20;;;;;;5023559;28;20495;-58
2021/07/31 04:27:04;;;;;;;;;;;23.30;58.10;;;;;;5024241;28;19920;-58
2021/07/31 04:29:30;;;;;;;;;;;23.30;58.20;;;;;;5022764;28;19917;-59
2021/07/31 04:31:55;;;;;;;;;;;23.30;58.20;;;;;;5023625;28;19913;-59
2021/07/31 04:34:21;;;;;;;;;;;23.30;58.20;;;;;;5023133;28;19921;-58
2021/07/31 04:36:46;;;;;;;;;;;23.30;58.20;;;;;;5035072;22;20033;-58
2021/07/31 04:39:12;;;;;;;;;;;23.30;58.20;;;;;;5030516;28;20271;-56
2021/07/31 04:41:37;;;;;;;;;;;23.30;58.20;;;;;;5022905;28;19913;-57
2021/07/31 04:44:03;;;;;;;;;;;23.30;58.20;;;;;;5023016;28;19968;-56
2021/07/31 04:46:28;;;;;;;;;;;23.30;58.90;;;;;;5021051;28;19936;-58
2021/07/31 04:48:54;;;;;;;;;;;23.30;58.40;;;;;;5022248;28;20022;-57
2021/07/31 04:51:19;;;;;;;;;;;23.30;58.40;;;;;;5022499;28;19920;-56
2021/07/31 04:53:45;;;;;;;;;;;23.30;58.50;;;;;;5021997;28;19917;-58
2021/07/31 04:56:11;;;;;;;;;;;23.30;58.40;;;;;;5023058;28;20504;-58
2021/07/31 04:58:36;;;;;;;;;;;23.30;58.40;;;;;;5022076;28;19917;-57
2021/07/31 05:01:02;;;;;;;;;;;23.30;58.40;;;;;;5021202;28;20332;-58
2021/07/31 05:03:27;;;;;;;;;;;23.30;58.50;;;;;;5014313;28;19913;-58
2021/07/31 05:05:53;;;;;;;;;;;23.30;58.60;;;;;;5022455;28;20402;-56
2021/07/31 05:08:18;;;;;;;;;;;23.30;58.60;;;;;;5022429;28;19966;-57
2021/07/31 05:10:44;;;;;;;;;;;23.30;58.50;;;;;;5022488;28;19924;-57
2021/07/31 05:13:10;;;;;;;;;;;23.30;58.40;;;;;;5022706;28;19917;-58
2021/07/31 05:15:36;;;;;;;;;;;23.30;58.40;;;;;;5020857;28;19918;-59
2021/07/31 05:18:02;;;;;;;;;;;23.30;58.30;;;;;;5021762;28;19914;-58
2021/07/31 05:20:27;;;;;;;;;;;23.30;58.40;;;;;;5020942;28;20059;-56
2021/07/31 05:22:53;;;;;;;;;;;23.30;58.60;;;;;;5022495;28;20297;-57
2021/07/31 05:25:19;;;;;;;;;;;23.30;58.60;;;;;;5022708;28;19917;-58
2021/07/31 05:27:44;;;;;;;;;;;23.30;58.60;;;;;;5022266;28;20000;-57
2021/07/31 05:30:10;;;;;;;;;;;23.30;58.70;;;;;;5020707;28;20290;-55
2021/07/31 05:32:35;;;;;;;;;;;23.30;58.70;;;;;;5020873;28;19917;-56
2021/07/31 05:35:01;;;;;;;;;;;23.30;58.70;;;;;;5022224;28;19925;-59
2021/07/31 05:37:27;;;;;;;;;;;23.30;58.90;;;;;;5022084;28;19929;-59
2021/07/31 05:39:52;;;;;;;;;;;23.30;59.10;;;;;;5020452;28;19917;-57
2021/07/31 05:42:18;;;;;;;;;;;23.30;59.10;;;;;;5022698;28;19913;-55
2021/07/31 05:44:43;;;;;;;;;;;23.30;59.20;;;;;;5022175;28;19932;-57
2021/07/31 05:47:09;;;;;;;;;;;23.30;59.20;;;;;;5020964;28;20822;-58
2021/07/31 05:49:34;;;;;;;;;;;23.30;59.00;;;;;;5015104;28;19917;-56
2021/07/31 05:51:59;;;;;;;;;;;23.30;58.90;;;;;;5002537;28;19957;-59
2021/07/31 05:54:25;;;;;;;;;;;23.30;58.80;;;;;;5002570;28;19968;-57
2021/07/31 05:56:50;;;;;;;;;;;23.30;58.80;;;;;;5002415;28;19936;-55
2021/07/31 05:59:16;;;;;;;;;;;23.30;58.80;;;;;;5001387;28;19924;-57
2021/07/31 06:01:42;;;;;;;;;;;23.30;58.80;;;;;;5017462;28;20649;-58
2021/07/31 06:04:07;;;;;;;;;;;23.30;58.90;;;;;;4999122;28;20378;-57
2021/07/31 06:06:33;;;;;;;;;;;23.30;58.80;;;;;;4996983;28;19928;-56
2021/07/31 06:08:59;;;;;;;;;;;23.20;58.80;;;;;;5001891;28;19925;-58
2021/07/31 06:11:24;;;;;;;;;;;23.30;58.90;;;;;;5002316;28;19917;-58
2021/07/31 06:13:50;;;;;;;;;;;23.20;58.80;;;;;;5002900;28;20005;-58
2021/07/31 06:16:15;;;;;;;;;;;23.30;58.90;;;;;;5002258;28;19918;-58
2021/07/31 06:18:41;;;;;;;;;;;23.20;58.80;;;;;;5001565;28;20286;-58
2021/07/31 06:21:13;;;;;;;;;;;23.30;59.00;;;;;;5002583;28;19913;-58
2021/07/31 06:23:38;;;;;;;;;;;23.20;58.90;;;;;;5002907;28;19926;-55
2021/07/31 06:26:03;;;;;;;;;;;23.20;58.90;;;;;;5002637;28;19977;-57
2021/07/31 06:28:29;;;;;;;;;;;23.20;58.80;;;;;;5002346;28;19917;-59
2021/07/31 06:30:54;;;;;;;;;;;23.20;58.80;;;;;;5004231;28;19917;-59
2021/07/31 06:33:20;;;;;;;;;;;23.20;58.70;;;;;;5005971;28;19987;-58
2021/07/31 06:35:45;;;;;;;;;;;23.20;58.80;;;;;;5005683;28;19913;-59
2021/07/31 06:38:12;;;;;;;;;;;23.30;58.70;;;;;;5004973;28;20337;-58
2021/07/31 06:40:37;;;;;;;;;;;23.30;59.00;;;;;;5005209;28;19918;-58
2021/07/31 06:43:02;;;;;;;;;;;23.20;59.00;;;;;;5005429;28;19917;-58
2021/07/31 06:45:28;;;;;;;;;;;23.20;59.00;;;;;;5019118;28;19972;-59
2021/07/31 06:47:53;;;;;;;;;;;23.20;59.10;;;;;;5003263;28;19917;-57
2021/07/31 06:50:19;;;;;;;;;;;23.20;59.00;;;;;;5004870;28;19914;-59
2021/07/31 06:52:45;;;;;;;;;;;23.20;58.80;;;;;;5023429;28;20393;-59
2021/07/31 06:55:10;;;;;;;;;;;23.20;58.70;;;;;;5025199;28;20028;-57
2021/07/31 06:57:36;;;;;;;;;;;23.20;58.60;;;;;;5024778;28;19997;-59
2021/07/31 07:00:01;;;;;;;;;;;23.30;58.60;;;;;;5024566;28;19914;-59
2021/07/31 07:02:27;;;;;;;;;;;23.20;59.00;;;;;;5024455;28;20334;-59
2021/07/31 07:04:52;;;;;;;;;;;23.20;58.80;;;;;;5025299;28;19921;-58
2021/07/31 07:07:21;;;;;;;;;;;23.20;58.80;;;;;;5024928;28;19969;-60
2021/07/31 07:09:46;;;;;;;;;;;23.20;58.90;;;;;;5024240;28;19913;-61
2021/07/31 07:12:12;;;;;;;;;;;23.20;58.60;;;;;;5024667;28;20000;-61
2021/07/31 07:14:37;;;;;;;;;;;23.20;58.60;;;;;;5024725;28;19917;-58
2021/07/31 07:17:05;;;;;;;;;;;23.20;58.60;;;;;;5024503;28;19917;-59
2021/07/31 07:19:31;;;;;;;;;;;23.20;58.60;;;;;;5022629;28;19936;-61
2021/07/31 07:21:57;;;;;;;;;;;23.20;58.60;;;;;;5006789;28;19913;-59
2021/07/31 07:24:22;;;;;;;;;;;23.20;58.60;;;;;;5024815;28;20296;-61
2021/07/31 07:26:48;;;;;;;;;;;23.20;58.50;;;;;;5024664;28;20335;-59
2021/07/31 07:29:13;;;;;;;;;;;23.20;58.60;;;;;;5024351;28;19974;-59
2021/07/31 07:31:39;;;;;;;;;;;23.20;58.30;;;;;;5024558;28;19917;-58
2021/07/31 07:34:04;;;;;;;;;;;23.20;58.30;;;;;;5024814;28;19917;-56
2021/07/31 07:36:29;;;;;;;;;;;23.20;58.30;;;;;;5024211;28;19921;-54
2021/07/31 07:38:55;;;;;;;;;;;23.20;58.00;;;;;;5023779;28;19917;-57
2021/07/31 07:41:20;;;;;;;;;;;23.20;58.00;;;;;;5024088;28;20428;-60
2021/07/31 07:43:46;;;;;;;;;;;23.20;58.10;;;;;;5024136;28;19913;-58
2021/07/31 07:46:12;;;;;;;;;;;23.20;58.00;;;;;;5023139;28;19921;-59
2021/07/31 07:48:37;;;;;;;;;;;23.20;58.10;;;;;;5022183;28;19921;-58
2021/07/31 07:51:03;;;;;;;;;;;23.20;57.90;;;;;;5024017;28;19933;-57
2021/07/31 07:53:28;;;;;;;;;;;23.20;57.90;;;;;;5022670;28;19918;-59
2021/07/31 07:55:54;;;;;;;;;;;23.20;58.10;;;;;;5017384;28;19983;-57
2021/07/31 07:58:19;;;;;;;;;;;23.20;58.10;;;;;;5023718;28;19943;-58
2021/07/31 08:00:45;;;;;;;;;;;23.20;58.30;;;;;;5023609;28;19917;-57
2021/07/31 08:03:10;;;;;;;;;;;23.20;58.30;;;;;;5023900;28;19917;-56
2021/07/31 08:05:37;;;;;;;;;;;23.20;58.10;;;;;;5023264;28;19918;-59
2021/07/31 08:08:04;;;;;;;;;;;23.20;58.10;;;;;;5021778;28;19913;-59
2021/07/31 08:10:29;;;;;;;;;;;23.20;58.30;;;;;;5023402;28;19924;-58
2021/07/31 08:12:55;;;;;;;;;;;23.20;58.30;;;;;;5021995;28;19936;-56
2021/07/31 08:15:20;;;;;;;;;;;23.20;58.30;;;;;;5023445;28;19918;-59
2021/07/31 08:17:46;;;;;;;;;;;23.20;58.40;;;;;;5023088;28;20449;-60
2021/07/31 08:20:11;;;;;;;;;;;23.20;58.40;;;;;;5023409;28;19920;-60
2021/07/31 08:22:37;;;;;;;;;;;23.20;58.40;;;;;;5023461;28;19913;-57
2021/07/31 08:25:02;;;;;;;;;;;23.20;58.40;;;;;;5023403;28;19971;-57
2021/07/31 08:27:28;;;;;;;;;;;23.20;58.40;;;;;;5023232;28;19921;-60
2021/07/31 08:29:53;;;;;;;;;;;23.20;58.40;;;;;;5023200;28;19913;-57
2021/07/31 08:32:19;;;;;;;;;;;23.20;58.50;;;;;;5021838;28;19921;-57
2021/07/31 08:34:44;;;;;;;;;;;23.20;58.50;;;;;;5023007;28;19928;-59
2021/07/31 08:37:10;;;;;;;;;;;23.20;58.50;;;;;;5023080;28;19925;-57
2021/07/31 08:39:37;;;;;;;;;;;23.10;58.50;;;;;;5022710;28;20572;-59
2021/07/31 08:42:03;;;;;;;;;;;23.20;58.60;;;;;;5023214;28;20318;-58
2021/07/31 08:44:28;;;;;;;;;;;23.20;58.50;;;;;;5022957;28;19917;-60
2021/07/31 08:46:54;;;;;;;;;;;23.20;58.50;;;;;;5023574;28;19917;-55
2021/07/31 08:49:20;;;;;;;;;;;23.20;58.40;;;;;;5020817;28;20455;-59
2021/07/31 08:51:45;;;;;;;;;;;23.20;58.40;;;;;;5021570;28;19913;-58
2021/07/31 08:54:11;;;;;;;;;;;23.20;58.50;;;;;;5021053;28;20008;-58
2021/07/31 08:56:36;;;;;;;;;;;23.20;58.60;;;;;;5022850;28;19917;-60
2021/07/31 08:59:02;;;;;;;;;;;23.20;58.60;;;;;;5020827;28;19921;-59
2021/07/31 09:01:27;;;;;;;;;;;23.20;58.50;;;;;;5022781;28;19958;-58
2021/07/31 09:03:54;;;;;;;;;;;23.20;58.60;;;;;;5023339;28;19917;-60
2021/07/31 09:06:29;;;;;;;;;;;23.20;58.40;;;;;;5012045;28;19921;-57
2021/07/31 09:08:55;;;;;;;;;;;23.20;58.20;;;;;;5021192;28;20378;-60
2021/07/31 09:11:20;;;;;;;;;;;23.20;57.10;;;;;;5023172;28;19929;-59
2021/07/31 09:13:46;;;;;;;;;;;23.20;56.10;;;;;;5023084;28;19917;-55
2021/07/31 09:16:11;;;;;;;;;;;23.20;56.10;;;;;;5022966;28;19913;-60
2021/07/31 09:18:43;;;;;;;;;;;23.20;56.10;;;;;;5022401;28;19917;-59
2021/07/31 09:21:10;;;;;;;;;;;23.20;56.40;;;;;;5022987;28;19963;-55
2021/07/31 09:23:36;;;;;;;;;;;23.20;56.90;;;;;;5023448;28;20324;-58
2021/07/31 09:26:01;;;;;;;;;;;23.20;57.10;;;;;;5023526;28;20581;-60
2021/07/31 09:28:27;;;;;;;;;;;23.20;56.90;;;;;;5022365;28;20530;-59
2021/07/31 09:30:52;;;;;;;;;;;23.20;57.20;;;;;;5022709;28;19917;-58
2021/07/31 09:33:18;;;;;;;;;;;23.20;57.50;;;;;;5023101;28;19913;-60
2021/07/31 09:35:44;;;;;;;;;;;23.20;57.50;;;;;;5021452;28;19917;-59
2021/07/31 09:38:10;;;;;;;;;;;23.20;57.80;;;;;;5022149;28;19929;-60
2021/07/31 09:40:35;;;;;;;;;;;23.20;57.90;;;;;;5022416;28;20428;-59
2021/07/31 09:43:13;;;;;;;;;;;23.20;58.00;;;;;;5022652;28;19924;-58
2021/07/31 09:45:39;;;;;;;;;;;23.20;58.10;;;;;;5021684;28;19928;-57
2021/07/31 09:48:05;;;;;;;;;;;23.20;58.80;;;;;;5022021;28;20297;-59
2021/07/31 09:50:50;;;;;;;;;;;23.20;58.10;;;;;;5020877;28;19927;-60
2021/07/31 09:53:16;;;;;;;;;;;23.20;58.10;;;;;;5022254;28;19922;-60
2021/07/31 09:55:45;;;;;;;;;;;23.20;58.10;;;;;;5020288;28;19936;-60
2021/07/31 09:58:12;;;;;;;;;;;23.20;58.10;;;;;;5015866;28;19917;-58
2021/07/31 10:00:38;;;;;;;;;;;23.20;58.20;;;;;;5030081;28;20000;-58
2021/07/31 10:03:04;;;;;;;;;;;23.20;58.20;;;;;;5013590;28;19921;-57
2021/07/31 10:05:29;;;;;;;;;;;23.20;58.20;;;;;;5021966;28;19924;-59
2021/07/31 10:07:55;;;;;;;;;;;23.20;57.90;;;;;;5025793;28;19975;-57
2021/07/31 10:10:20;;;;;;;;;;;23.20;57.60;;;;;;5024337;28;19940;-58
2021/07/31 10:12:45;;;;;;;;;;;23.20;57.50;;;;;;5024484;28;19917;-61
2021/07/31 10:15:11;;;;;;;;;;;23.20;57.30;;;;;;5024429;28;20515;-59
2021/07/31 10:17:39;;;;;;;;;;;23.20;57.40;;;;;;5023295;28;20155;-57
2021/07/31 10:20:05;;;;;;;;;;;23.20;57.40;;;;;;5024383;28;19913;-58
2021/07/31 10:22:48;;;;;;;;;;;23.20;57.20;;;;;;5023951;28;19936;-60
2021/07/31 10:25:14;;;;;;;;;;;23.20;57.00;;;;;;5023747;28;20000;-59
2021/07/31 10:27:40;;;;;;;;;;;23.20;56.70;;;;;;5025161;28;20403;-58
2021/07/31 10:30:22;;;;;;;;;;;23.20;56.70;;;;;;5025312;28;19925;-59
2021/07/31 10:32:48;;;;;;;;;;;23.30;56.60;;;;;;5024048;28;19949;-57
2021/07/31 10:35:26;;;;;;;;;;;23.20;56.70;;;;;;5025301;28;19917;-58
2021/07/31 10:37:52;;;;;;;;;;;23.30;56.90;;;;;;5045611;22;19934;-58
2021/07/31 10:40:32;;;;;;;;;;;23.30;57.10;;;;;;5040866;28;19959;-57
2021/07/31 10:42:57;;;;;;;;;;;23.30;57.30;;;;;;5039402;28;19913;-60
2021/07/31 10:45:23;;;;;;;;;;;23.30;57.30;;;;;;5041275;28;19921;-59
2021/07/31 10:47:58;;;;;;;;;;;23.30;57.10;;;;;;5040615;28;20004;-58
2021/07/31 10:50:27;;;;;;;;;;;23.30;57.10;;;;;;5029388;28;20249;-59
2021/07/31 10:52:55;;;;;;;;;;;23.30;57.10;;;;;;5041778;28;20877;-59
2021/07/31 10:55:24;;;;;;;;;;;23.30;57.40;;;;;;5042229;28;19913;-59
2021/07/31 10:57:52;;;;;;;;;;;23.30;57.00;;;;;;5042630;28;19925;-58
2021/07/31 11:00:24;;;;;;;;;;;23.30;57.10;;;;;;5042343;28;20359;-58
2021/07/31 11:02:50;;;;;;;;;;;23.20;56.90;;;;;;5043063;28;19944;-59
2021/07/31 11:05:15;;;;;;;;;;;23.30;57.10;;;;;;5042800;28;19967;-59
2021/07/31 11:08:00;;;;;;;;;;;23.30;57.10;;;;;;5041963;28;19921;-58
2021/07/31 11:10:34;;;;;;;;;;;23.30;57.30;;;;;;5031583;28;19919;-58
2021/07/31 11:13:00;;;;;;;;;;;23.30;57.00;;;;;;5042962;28;19921;-59
2021/07/31 11:15:25;;;;;;;;;;;23.30;56.50;;;;;;5040908;28;19917;-59
2021/07/31 11:17:58;;;;;;;;;;;23.30;56.50;;;;;;5040866;28;20413;-58
2021/07/31 11:20:41;;;;;;;;;;;23.30;56.60;;;;;;5042809;28;20382;-59
2021/07/31 11:23:07;;;;;;;;;;;23.30;56.70;;;;;;5041834;28;21830;-57
2021/07/31 11:25:33;;;;;;;;;;;23.30;56.70;;;;;;5042229;28;19982;-57
2021/07/31 11:27:59;;;;;;;;;;;23.30;56.70;;;;;;5042365;28;19984;-58
2021/07/31 11:30:38;;;;;;;;;;;23.30;56.60;;;;;;5043198;28;19948;-59
2021/07/31 11:33:13;;;;;;;;;;;23.30;56.80;;;;;;5041848;28;19917;-57
2021/07/31 11:35:39;;;;;;;;;;;23.30;56.80;;;;;;5041320;28;20444;-59
2021/07/31 11:38:23;;;;;;;;;;;23.30;56.40;;;;;;5040817;28;19924;-59
2021/07/31 11:40:57;;;;;;;;;;;23.30;56.50;;;;;;5041645;28;19913;-58
2021/07/31 11:43:23;;;;;;;;;;;23.30;56.50;;;;;;5042662;28;19938;-58
2021/07/31 11:45:48;;;;;;;;;;;23.30;56.50;;;;;;5041819;28;20440;-58
2021/07/31 11:48:14;;;;;;;;;;;23.30;56.50;;;;;;5042465;28;19959;-57
2021/07/31 11:50:59;;;;;;;;;;;23.30;56.70;;;;;;5043249;28;19986;-56
2021/07/31 11:53:24;;;;;;;;;;;23.30;56.80;;;;;;5042197;28;22892;-57
2021/07/31 11:55:49;;;;;;;;;;;23.30;57.00;;;;;;5041920;28;19945;-58
2021/07/31 11:58:15;;;;;;;;;;;23.30;57.20;;;;;;5041939;28;19978;-58
2021/07/31 12:00:40;;;;;;;;;;;23.30;57.20;;;;;;5040996;28;19936;-59
2021/07/31 12:03:24;;;;;;;;;;;23.30;56.90;;;;;;5041205;28;19913;-57
2021/07/31 12:05:50;;;;;;;;;;;23.30;57.00;;;;;;5042502;28;20408;-59
2021/07/31 12:08:15;;;;;;;;;;;23.30;57.00;;;;;;5041936;28;19920;-58
2021/07/31 12:10:47;;;;;;;;;;;23.30;57.10;;;;;;5042477;28;20373;-58
2021/07/31 12:13:13;;;;;;;;;;;23.30;57.10;;;;;;5042309;28;20042;-58
2021/07/31 12:15:41;;;;;;;;;;;23.30;56.80;;;;;;5042036;28;19913;-58
2021/07/31 12:18:06;;;;;;;;;;;23.30;56.90;;;;;;5041865;28;20777;-58
2021/07/31 12:20:32;;;;;;;;;;;23.30;57.00;;;;;;5042165;28;19925;-58
2021/07/31 12:22:58;;;;;;;;;;;23.30;57.10;;;;;;5041152;28;20308;-59
2021/07/31 12:25:23;;;;;;;;;;;23.30;57.10;;;;;;5042033;28;20546;-58
2021/07/31 12:27:49;;;;;;;;;;;23.30;57.00;;;;;;5040851;28;19916;-57
2021/07/31 12:30:19;;;;;;;;;;;23.30;57.00;;;;;;5041763;28;20008;-57
2021/07/31 12:32:44;;;;;;;;;;;23.30;57.10;;;;;;5042021;28;20458;-59
2021/07/31 12:35:18;;;;;;;;;;;23.30;57.00;;;;;;5041521;28;19916;-59
2021/07/31 12:37:47;;;;;;;;;;;23.30;57.10;;;;;;5039368;28;19925;-59
2021/07/31 12:40:12;;;;;;;;;;;23.30;56.90;;;;;;5041706;28;19913;-59
2021/07/31 12:42:38;;;;;;;;;;;23.30;56.90;;;;;;5041579;28;20373;-59
2021/07/31 12:45:10;;;;;;;;;;;23.30;56.90;;;;;;5041935;28;19920;-58
2021/07/31 12:47:35;;;;;;;;;;;23.30;56.80;;;;;;5040936;28;20020;-57
2021/07/31 12:50:01;;;;;;;;;;;23.30;56.70;;;;;;5040934;28;20176;-59
2021/07/31 12:52:26;;;;;;;;;;;23.30;56.40;;;;;;5041693;28;19917;-58
2021/07/31 12:54:52;;;;;;;;;;;23.30;56.50;;;;;;5038579;28;19924;-59
2021/07/31 12:57:17;;;;;;;;;;;23.30;56.30;;;;;;5040573;28;20304;-58
2021/07/31 12:59:43;;;;;;;;;;;23.30;56.30;;;;;;5041397;28;19913;-58
2021/07/31 13:02:08;;;;;;;;;;;23.30;56.40;;;;;;5041200;28;20399;-59
2021/07/31 13:04:34;;;;;;;;;;;23.30;56.20;;;;;;5039480;28;20001;-59
2021/07/31 13:06:59;;;;;;;;;;;23.30;56.30;;;;;;5040381;28;19917;-58
2021/07/31 13:09:24;;;;;;;;;;;23.30;56.20;;;;;;5041233;28;19917;-58
2021/07/31 13:11:51;;;;;;;;;;;23.30;56.20;;;;;;5041317;28;19939;-58
2021/07/31 13:14:17;;;;;;;;;;;23.30;55.90;;;;;;5039929;28;20003;-58
2021/07/31 13:16:42;;;;;;;;;;;23.30;55.80;;;;;;5041620;28;19973;-59
2021/07/31 13:19:07;;;;;;;;;;;23.30;55.90;;;;;;5040630;28;19916;-58
2021/07/31 13:21:33;;;;;;;;;;;23.30;55.90;;;;;;5041669;28;20396;-58
2021/07/31 13:23:58;;;;;;;;;;;23.30;56.00;;;;;;5041237;28;19917;-59
2021/07/31 13:26:24;;;;;;;;;;;23.30;55.90;;;;;;5041322;28;20638;-59
2021/07/31 13:28:49;;;;;;;;;;;23.30;55.90;;;;;;5040071;28;19917;-58
2021/07/31 13:31:15;;;;;;;;;;;23.30;56.10;;;;;;5040160;28;19913;-58
2021/07/31 13:33:40;;;;;;;;;;;23.30;56.30;;;;;;5040784;28;20427;-58
2021/07/31 13:36:06;;;;;;;;;;;23.30;56.30;;;;;;5040591;28;19967;-57
2021/07/31 13:38:35;;;;;;;;;;;23.30;56.40;;;;;;5040099;28;19921;-58
2021/07/31 13:41:01;;;;;;;;;;;23.30;56.40;;;;;;5042364;28;20728;-58
2021/07/31 13:43:26;;;;;;;;;;;23.30;56.50;;;;;;5044368;28;19920;-58
2021/07/31 13:45:51;;;;;;;;;;;23.30;56.40;;;;;;5045016;28;19924;-58
2021/07/31 13:48:17;;;;;;;;;;;23.30;56.40;;;;;;5042964;28;19956;-58
2021/07/31 13:50:42;;;;;;;;;;;23.30;56.10;;;;;;5045230;28;20297;-59
2021/07/31 13:53:08;;;;;;;;;;;23.30;56.10;;;;;;5044820;28;20363;-58
2021/07/31 13:55:34;;;;;;;;;;;23.30;56.10;;;;;;5045016;28;19928;-57
2021/07/31 13:58:00;;;;;;;;;;;23.30;56.00;;;;;;5044061;28;19923;-58
2021/07/31 14:00:26;;;;;;;;;;;23.30;56.10;;;;;;5045909;28;20307;-57
2021/07/31 14:02:51;;;;;;;;;;;23.30;55.60;;;;;;5044903;28;19913;-58
2021/07/31 14:05:17;;;;;;;;;;;23.30;55.60;;;;;;5042266;28;19925;-57
2021/07/31 14:07:42;;;;;;;;;;;23.30;55.70;;;;;;5044248;28;19928;-57
2021/07/31 14:10:08;;;;;;;;;;;23.30;55.80;;;;;;5043443;28;19916;-58